Terminal Aerodrome Forecast
Issued by NWS Wichita, KS

Home | Current Version | Previous Version | Text Only | Print | Product List | Glossary On
Versions: 1 2 3 4 5 6 7 8 9 10 11 12 13 14 15 16 17
719
FTUS43 KICT 041120
TAFICT
TAF
KICT 041120Z 0412/0512 30008KT P6SM SKC
     FM041400 35012KT P6SM SKC
     FM041600 35014G20KT P6SM SKC
     FM050000 36008KT P6SM SKC
     FM050400 VRB05KT P6SM SKC=

USA.gov is the U.S. government's official web portal to all federal, state and local government web resources and services.